sensor_id;sensor_type;location;lat;lon;timestamp;temperature;humidity
1958;DHT22;979;51.076;13.748;2023-05-10T00:01:28;15.50;49.30
1958;DHT22;979;51.076;13.748;2023-05-10T00:03:56;15.50;50.10
1958;DHT22;979;51.076;13.748;2023-05-10T00:06:25;15.50;49.40
1958;DHT22;979;51.076;13.748;2023-05-10T00:08:53;15.50;49.60
1958;DHT22;979;51.076;13.748;2023-05-10T00:11:31;15.40;49.60
1958;DHT22;979;51.076;13.748;2023-05-10T00:14:01;15.40;49.70
1958;DHT22;979;51.076;13.748;2023-05-10T00:16:58;15.40;49.60
1958;DHT22;979;51.076;13.748;2023-05-10T00:19:28;15.30;49.50
1958;DHT22;979;51.076;13.748;2023-05-10T00:21:57;15.40;49.50
1958;DHT22;979;51.076;13.748;2023-05-10T00:24:25;15.30;49.50
1958;DHT22;979;51.076;13.748;2023-05-10T00:26:54;15.30;49.60
1958;DHT22;979;51.076;13.748;2023-05-10T00:29:22;15.30;49.70
1958;DHT22;979;51.076;13.748;2023-05-10T00:31:51;15.30;49.80
1958;DHT22;979;51.076;13.748;2023-05-10T00:34:23;15.20;49.80
1958;DHT22;979;51.076;13.748;2023-05-10T00:36:57;15.10;49.70
1958;DHT22;979;51.076;13.748;2023-05-10T00:39:29;15.10;49.60
1958;DHT22;979;51.076;13.748;2023-05-10T00:41:58;15.20;49.90
1958;DHT22;979;51.076;13.748;2023-05-10T00:44:29;15.20;49.90
1958;DHT22;979;51.076;13.748;2023-05-10T00:47:00;15.10;49.80
1958;DHT22;979;51.076;13.748;2023-05-10T00:49:39;15.10;49.80
1958;DHT22;979;51.076;13.748;2023-05-10T00:52:08;15.00;49.70
1958;DHT22;979;51.076;13.748;2023-05-10T00:54:37;15.00;49.80
1958;DHT22;979;51.076;13.748;2023-05-10T00:57:05;15.00;49.70
1958;DHT22;979;51.076;13.748;2023-05-10T00:59:37;15.00;49.90
1958;DHT22;979;51.076;13.748;2023-05-10T01:02:06;14.90;49.80
1958;DHT22;979;51.076;13.748;2023-05-10T01:04:50;14.90;49.70
1958;DHT22;979;51.076;13.748;2023-05-10T01:07:19;14.90;49.90
1958;DHT22;979;51.076;13.748;2023-05-10T01:09:47;14.80;49.80
1958;DHT22;979;51.076;13.748;2023-05-10T01:12:15;14.80;49.80
1958;DHT22;979;51.076;13.748;2023-05-10T01:14:44;14.70;49.90
1958;DHT22;979;51.076;13.748;2023-05-10T01:17:13;14.70;49.90
1958;DHT22;979;51.076;13.748;2023-05-10T01:19:43;14.70;50.00
1958;DHT22;979;51.076;13.748;2023-05-10T01:22:26;14.70;50.10
1958;DHT22;979;51.076;13.748;2023-05-10T01:25:17;14.60;49.90
1958;DHT22;979;51.076;13.748;2023-05-10T01:28:17;14.60;49.90
1958;DHT22;979;51.076;13.748;2023-05-10T01:31:06;14.40;49.80
1958;DHT22;979;51.076;13.748;2023-05-10T01:33:43;14.50;50.00
1958;DHT22;979;51.076;13.748;2023-05-10T01:36:21;14.40;49.90
1958;DHT22;979;51.076;13.748;2023-05-10T01:38:57;14.40;50.10
1958;DHT22;979;51.076;13.748;2023-05-10T01:41:36;14.40;50.10
1958;DHT22;979;51.076;13.748;2023-05-10T01:44:27;14.30;50.10
1958;DHT22;979;51.076;13.748;2023-05-10T01:47:01;14.30;50.20
1958;DHT22;979;51.076;13.748;2023-05-10T01:49:39;14.30;50.30
1958;DHT22;979;51.076;13.748;2023-05-10T01:52:10;14.30;50.30
1958;DHT22;979;51.076;13.748;2023-05-10T01:54:44;14.20;50.30
1958;DHT22;979;51.076;13.748;2023-05-10T01:57:36;14.20;50.50
1958;DHT22;979;51.076;13.748;2023-05-10T02:00:08;14.20;50.70
1958;DHT22;979;51.076;13.748;2023-05-10T02:02:45;14.20;50.50
1958;DHT22;979;51.076;13.748;2023-05-10T02:05:29;14.20;50.60
1958;DHT22;979;51.076;13.748;2023-05-10T02:07:59;14.10;50.60
1958;DHT22;979;51.076;13.748;2023-05-10T02:10:29;14.10;50.70
1958;DHT22;979;51.076;13.748;2023-05-10T02:13:07;14.10;50.80
1958;DHT22;979;51.076;13.748;2023-05-10T02:15:37;14.00;50.80
1958;DHT22;979;51.076;13.748;2023-05-10T02:18:07;14.00;50.70
1958;DHT22;979;51.076;13.748;2023-05-10T02:20:54;14.00;51.00
1958;DHT22;979;51.076;13.748;2023-05-10T02:23:23;14.00;51.70
1958;DHT22;979;51.076;13.748;2023-05-10T02:25:55;13.90;51.10
1958;DHT22;979;51.076;13.748;2023-05-10T02:28:24;13.90;51.10
1958;DHT22;979;51.076;13.748;2023-05-10T02:30:59;13.90;51.30
1958;DHT22;979;51.076;13.748;2023-05-10T02:33:31;13.90;51.20
1958;DHT22;979;51.076;13.748;2023-05-10T02:36:02;13.90;51.40
1958;DHT22;979;51.076;13.748;2023-05-10T02:38:33;13.90;51.50
1958;DHT22;979;51.076;13.748;2023-05-10T02:41:05;13.80;51.40
1958;DHT22;979;51.076;13.748;2023-05-10T02:43:42;13.80;51.60
1958;DHT22;979;51.076;13.748;2023-05-10T02:46:11;13.90;51.60
1958;DHT22;979;51.076;13.748;2023-05-10T02:48:40;13.80;51.70
1958;DHT22;979;51.076;13.748;2023-05-10T02:51:16;13.80;51.80
1958;DHT22;979;51.076;13.748;2023-05-10T02:53:48;13.80;51.80
1958;DHT22;979;51.076;13.748;2023-05-10T02:56:42;13.70;51.80
1958;DHT22;979;51.076;13.748;2023-05-10T02:59:13;13.70;51.90
1958;DHT22;979;51.076;13.748;2023-05-10T03:01:43;13.70;51.80
1958;DHT22;979;51.076;13.748;2023-05-10T03:04:12;13.70;52.10
1958;DHT22;979;51.076;13.748;2023-05-10T03:06:51;13.70;52.40
1958;DHT22;979;51.076;13.748;2023-05-10T03:09:28;13.70;52.40
1958;DHT22;979;51.076;13.748;2023-05-10T03:12:19;13.70;52.40
1958;DHT22;979;51.076;13.748;2023-05-10T03:15:00;13.70;52.20
1958;DHT22;979;51.076;13.748;2023-05-10T03:17:44;13.70;52.40
1958;DHT22;979;51.076;13.748;2023-05-10T03:20:29;13.70;52.50
1958;DHT22;979;51.076;13.748;2023-05-10T03:23:09;13.60;52.50
1958;DHT22;979;51.076;13.748;2023-05-10T03:25:48;13.60;52.30
1958;DHT22;979;51.076;13.748;2023-05-10T03:28:25;13.70;52.60
1958;DHT22;979;51.076;13.748;2023-05-10T03:31:04;13.60;52.60
1958;DHT22;979;51.076;13.748;2023-05-10T03:33:49;13.60;52.60
1958;DHT22;979;51.076;13.748;2023-05-10T03:36:33;13.60;52.80
1958;DHT22;979;51.076;13.748;2023-05-10T03:39:31;13.60;53.00
1958;DHT22;979;51.076;13.748;2023-05-10T03:42:08;13.60;52.90
1958;DHT22;979;51.076;13.748;2023-05-10T03:44:48;13.60;53.10
1958;DHT22;979;51.076;13.748;2023-05-10T03:47:35;13.50;52.90
1958;DHT22;979;51.076;13.748;2023-05-10T03:50:24;13.60;53.30
1958;DHT22;979;51.076;13.748;2023-05-10T03:52:57;13.60;53.30
1958;DHT22;979;51.076;13.748;2023-05-10T03:55:39;13.60;53.50
1958;DHT22;979;51.076;13.748;2023-05-10T03:58:15;13.60;53.30
1958;DHT22;979;51.076;13.748;2023-05-10T04:00:54;13.70;53.40
1958;DHT22;979;51.076;13.748;2023-05-10T04:03:30;13.60;53.40
1958;DHT22;979;51.076;13.748;2023-05-10T04:06:14;13.60;53.40
1958;DHT22;979;51.076;13.748;2023-05-10T04:08:57;13.60;53.50
1958;DHT22;979;51.076;13.748;2023-05-10T04:11:38;13.70;53.50
1958;DHT22;979;51.076;13.748;2023-05-10T04:14:26;13.70;53.40
1958;DHT22;979;51.076;13.748;2023-05-10T04:16:57;13.80;53.40
1958;DHT22;979;51.076;13.748;2023-05-10T04:19:32;13.70;53.40
1958;DHT22;979;51.076;13.748;2023-05-10T04:22:12;13.80;53.40
1958;DHT22;979;51.076;13.748;2023-05-10T04:24:45;13.80;53.50
1958;DHT22;979;51.076;13.748;2023-05-10T04:27:20;13.80;53.70
1958;DHT22;979;51.076;13.748;2023-05-10T04:29:58;13.90;53.90
1958;DHT22;979;51.076;13.748;2023-05-10T04:32:34;13.80;53.60
1958;DHT22;979;51.076;13.748;2023-05-10T04:35:15;13.90;53.80
1958;DHT22;979;51.076;13.748;2023-05-10T04:37:59;13.90;53.60
1958;DHT22;979;51.076;13.748;2023-05-10T04:43:37;14.10;53.60
1958;DHT22;979;51.076;13.748;2023-05-10T04:46:19;14.10;53.80
1958;DHT22;979;51.076;13.748;2023-05-10T04:49:07;14.10;53.90
1958;DHT22;979;51.076;13.748;2023-05-10T04:52:09;14.20;53.70
1958;DHT22;979;51.076;13.748;2023-05-10T04:55:24;14.00;53.50
1958;DHT22;979;51.076;13.748;2023-05-10T04:58:44;14.30;53.80
1958;DHT22;979;51.076;13.748;2023-05-10T05:04:34;14.40;53.60
1958;DHT22;979;51.076;13.748;2023-05-10T05:07:20;14.40;53.50
1958;DHT22;979;51.076;13.748;2023-05-10T05:10:22;14.50;54.00
1958;DHT22;979;51.076;13.748;2023-05-10T05:13:04;14.50;53.70
1958;DHT22;979;51.076;13.748;2023-05-10T05:16:05;14.60;54.10
1958;DHT22;979;51.076;13.748;2023-05-10T05:18:40;14.70;54.00
1958;DHT22;979;51.076;13.748;2023-05-10T05:21:51;14.70;54.10
1958;DHT22;979;51.076;13.748;2023-05-10T05:24:39;14.90;54.20
1958;DHT22;979;51.076;13.748;2023-05-10T05:27:18;14.90;54.10
1958;DHT22;979;51.076;13.748;2023-05-10T05:30:05;14.80;53.60
1958;DHT22;979;51.076;13.748;2023-05-10T05:32:39;14.90;53.80
1958;DHT22;979;51.076;13.748;2023-05-10T05:35:14;15.10;54.20
1958;DHT22;979;51.076;13.748;2023-05-10T05:37:47;15.30;54.00
1958;DHT22;979;51.076;13.748;2023-05-10T05:40:18;15.20;53.80
1958;DHT22;979;51.076;13.748;2023-05-10T05:43:12;15.30;53.90
1958;DHT22;979;51.076;13.748;2023-05-10T05:46:34;15.40;53.80
1958;DHT22;979;51.076;13.748;2023-05-10T05:50:00;15.40;53.90
1958;DHT22;979;51.076;13.748;2023-05-10T05:53:02;15.50;53.60
1958;DHT22;979;51.076;13.748;2023-05-10T05:56:05;15.60;53.80
1958;DHT22;979;51.076;13.748;2023-05-10T05:59:17;15.70;53.80
1958;DHT22;979;51.076;13.748;2023-05-10T06:02:19;15.80;53.60
1958;DHT22;979;51.076;13.748;2023-05-10T06:05:28;15.90;53.70
1958;DHT22;979;51.076;13.748;2023-05-10T06:08:22;16.00;53.60
1958;DHT22;979;51.076;13.748;2023-05-10T06:11:08;16.00;53.70
1958;DHT22;979;51.076;13.748;2023-05-10T06:14:19;15.90;53.60
1958;DHT22;979;51.076;13.748;2023-05-10T06:17:09;16.20;53.40
1958;DHT22;979;51.076;13.748;2023-05-10T06:24:06;16.30;53.10
1958;DHT22;979;51.076;13.748;2023-05-10T06:27:01;16.40;53.10
1958;DHT22;979;51.076;13.748;2023-05-10T06:29:54;16.50;53.40
1958;DHT22;979;51.076;13.748;2023-05-10T06:32:41;16.60;53.00
1958;DHT22;979;51.076;13.748;2023-05-10T06:35:45;16.70;53.10
1958;DHT22;979;51.076;13.748;2023-05-10T06:38:30;16.80;52.80
1958;DHT22;979;51.076;13.748;2023-05-10T06:41:39;16.80;52.90
1958;DHT22;979;51.076;13.748;2023-05-10T06:44:51;17.00;52.90
1958;DHT22;979;51.076;13.748;2023-05-10T06:47:48;17.30;53.00
1958;DHT22;979;51.076;13.748;2023-05-10T06:50:35;17.30;52.70
1958;DHT22;979;51.076;13.748;2023-05-10T06:53:45;17.30;52.60
1958;DHT22;979;51.076;13.748;2023-05-10T06:56:33;17.40;52.30
1958;DHT22;979;51.076;13.748;2023-05-10T06:59:26;17.40;52.40
1958;DHT22;979;51.076;13.748;2023-05-10T07:02:00;17.60;52.30
1958;DHT22;979;51.076;13.748;2023-05-10T07:04:35;17.70;52.50
1958;DHT22;979;51.076;13.748;2023-05-10T07:07:09;17.80;52.10
1958;DHT22;979;51.076;13.748;2023-05-10T07:09:59;17.90;52.20
1958;DHT22;979;51.076;13.748;2023-05-10T07:12:35;17.90;52.20
1958;DHT22;979;51.076;13.748;2023-05-10T07:15:19;18.00;52.00
1958;DHT22;979;51.076;13.748;2023-05-10T07:17:59;18.10;51.70
1958;DHT22;979;51.076;13.748;2023-05-10T07:20:38;18.10;52.00
1958;DHT22;979;51.076;13.748;2023-05-10T07:23:19;18.00;51.70
1958;DHT22;979;51.076;13.748;2023-05-10T07:25:56;18.30;52.20
1958;DHT22;979;51.076;13.748;2023-05-10T07:28:50;18.30;51.90
1958;DHT22;979;51.076;13.748;2023-05-10T07:32:00;18.40;51.60
1958;DHT22;979;51.076;13.748;2023-05-10T07:34:32;18.50;51.40
1958;DHT22;979;51.076;13.748;2023-05-10T07:37:38;18.60;51.60
1958;DHT22;979;51.076;13.748;2023-05-10T07:40:27;18.70;51.70
1958;DHT22;979;51.076;13.748;2023-05-10T07:43:09;18.80;51.40
1958;DHT22;979;51.076;13.748;2023-05-10T07:49:11;18.70;50.80
1958;DHT22;979;51.076;13.748;2023-05-10T07:51:46;18.90;50.90
1958;DHT22;979;51.076;13.748;2023-05-10T07:54:25;19.00;51.30
1958;DHT22;979;51.076;13.748;2023-05-10T07:57:05;19.10;51.00
1958;DHT22;979;51.076;13.748;2023-05-10T07:59:40;19.20;51.10
1958;DHT22;979;51.076;13.748;2023-05-10T08:02:25;19.30;51.10
1958;DHT22;979;51.076;13.748;2023-05-10T08:05:29;19.40;51.30
1958;DHT22;979;51.076;13.748;2023-05-10T08:08:10;19.40;50.70
1958;DHT22;979;51.076;13.748;2023-05-10T08:10:48;19.50;50.80
1958;DHT22;979;51.076;13.748;2023-05-10T08:13:25;19.60;50.60
1958;DHT22;979;51.076;13.748;2023-05-10T08:16:07;19.60;50.80
1958;DHT22;979;51.076;13.748;2023-05-10T08:18:44;19.30;50.50
1958;DHT22;979;51.076;13.748;2023-05-10T08:21:30;19.70;50.60
1958;DHT22;979;51.076;13.748;2023-05-10T08:24:06;19.70;50.50
1958;DHT22;979;51.076;13.748;2023-05-10T08:26:45;19.80;50.50
1958;DHT22;979;51.076;13.748;2023-05-10T08:29:20;19.80;50.30
1958;DHT22;979;51.076;13.748;2023-05-10T08:31:59;19.90;50.40
1958;DHT22;979;51.076;13.748;2023-05-10T08:34:36;19.90;50.40
1958;DHT22;979;51.076;13.748;2023-05-10T08:37:16;20.00;50.20
1958;DHT22;979;51.076;13.748;2023-05-10T08:39:52;20.20;50.10
1958;DHT22;979;51.076;13.748;2023-05-10T08:42:36;20.20;50.10
1958;DHT22;979;51.076;13.748;2023-05-10T08:45:10;20.10;49.70
1958;DHT22;979;51.076;13.748;2023-05-10T08:47:59;20.30;50.10
1958;DHT22;979;51.076;13.748;2023-05-10T08:50:41;20.60;50.20
1958;DHT22;979;51.076;13.748;2023-05-10T08:53:18;20.50;50.20
1958;DHT22;979;51.076;13.748;2023-05-10T08:55:54;20.60;50.00
1958;DHT22;979;51.076;13.748;2023-05-10T08:58:32;20.60;49.80
1958;DHT22;979;51.076;13.748;2023-05-10T09:01:05;20.60;49.80
1958;DHT22;979;51.076;13.748;2023-05-10T09:03:41;20.70;49.70
1958;DHT22;979;51.076;13.748;2023-05-10T09:06:12;20.80;49.80
1958;DHT22;979;51.076;13.748;2023-05-10T09:08:48;20.80;49.70
1958;DHT22;979;51.076;13.748;2023-05-10T09:11:36;20.70;49.70
1958;DHT22;979;51.076;13.748;2023-05-10T09:14:15;21.00;49.80
1958;DHT22;979;51.076;13.748;2023-05-10T09:16:53;21.10;49.50
1958;DHT22;979;51.076;13.748;2023-05-10T09:19:34;21.10;49.50
1958;DHT22;979;51.076;13.748;2023-05-10T09:22:07;21.00;49.50
1958;DHT22;979;51.076;13.748;2023-05-10T09:25:03;21.30;49.70
1958;DHT22;979;51.076;13.748;2023-05-10T09:27:41;21.40;49.40
1958;DHT22;979;51.076;13.748;2023-05-10T09:30:30;21.30;49.10
1958;DHT22;979;51.076;13.748;2023-05-10T09:33:09;21.80;49.60
1958;DHT22;979;51.076;13.748;2023-05-10T09:35:52;21.50;49.10
1958;DHT22;979;51.076;13.748;2023-05-10T09:38:25;21.70;49.40
1958;DHT22;979;51.076;13.748;2023-05-10T09:41:01;22.10;49.30
1958;DHT22;979;51.076;13.748;2023-05-10T09:43:37;21.90;49.10
1958;DHT22;979;51.076;13.748;2023-05-10T09:46:08;22.00;49.10
1958;DHT22;979;51.076;13.748;2023-05-10T09:48:53;22.20;49.50
1958;DHT22;979;51.076;13.748;2023-05-10T09:51:28;22.20;49.20
1958;DHT22;979;51.076;13.748;2023-05-10T09:54:16;22.30;49.20
1958;DHT22;979;51.076;13.748;2023-05-10T09:56:59;22.40;49.00
1958;DHT22;979;51.076;13.748;2023-05-10T09:59:33;22.50;48.70
1958;DHT22;979;51.076;13.748;2023-05-10T10:02:07;22.60;48.80
1958;DHT22;979;51.076;13.748;2023-05-10T10:04:42;22.70;48.70
1958;DHT22;979;51.076;13.748;2023-05-10T10:07:26;22.80;48.70
1958;DHT22;979;51.076;13.748;2023-05-10T10:10:13;22.90;48.20
1958;DHT22;979;51.076;13.748;2023-05-10T10:12:59;23.00;48.50
1958;DHT22;979;51.076;13.748;2023-05-10T10:15:38;23.10;48.40
1958;DHT22;979;51.076;13.748;2023-05-10T10:18:22;23.20;48.60
1958;DHT22;979;51.076;13.748;2023-05-10T10:21:08;23.30;48.00
1958;DHT22;979;51.076;13.748;2023-05-10T10:23:42;23.50;48.30
1958;DHT22;979;51.076;13.748;2023-05-10T10:26:21;23.60;48.90
1958;DHT22;979;51.076;13.748;2023-05-10T10:29:16;23.60;47.60
1958;DHT22;979;51.076;13.748;2023-05-10T10:32:03;23.70;47.30
1958;DHT22;979;51.076;13.748;2023-05-10T10:34:47;23.80;47.30
1958;DHT22;979;51.076;13.748;2023-05-10T10:37:50;23.90;47.60
1958;DHT22;979;51.076;13.748;2023-05-10T10:40:38;23.80;47.30
1958;DHT22;979;51.076;13.748;2023-05-10T10:43:27;24.10;47.20
1958;DHT22;979;51.076;13.748;2023-05-10T10:46:26;24.10;47.30
1958;DHT22;979;51.076;13.748;2023-05-10T10:49:11;24.20;47.60
1958;DHT22;979;51.076;13.748;2023-05-10T10:52:15;24.30;47.60
1958;DHT22;979;51.076;13.748;2023-05-10T10:55:00;24.40;47.00
1958;DHT22;979;51.076;13.748;2023-05-10T10:57:57;24.60;47.00
1958;DHT22;979;51.076;13.748;2023-05-10T11:00:35;24.70;46.70
1958;DHT22;979;51.076;13.748;2023-05-10T11:03:09;24.70;46.60
1958;DHT22;979;51.076;13.748;2023-05-10T11:05:41;24.70;46.10
1958;DHT22;979;51.076;13.748;2023-05-10T11:08:27;24.80;46.00
1958;DHT22;979;51.076;13.748;2023-05-10T11:11:06;24.80;45.70
1958;DHT22;979;51.076;13.748;2023-05-10T11:13:39;24.80;45.80
1958;DHT22;979;51.076;13.748;2023-05-10T11:16:12;24.80;45.80
1958;DHT22;979;51.076;13.748;2023-05-10T11:18:58;24.80;45.80
1958;DHT22;979;51.076;13.748;2023-05-10T11:21:31;25.00;45.80
1958;DHT22;979;51.076;13.748;2023-05-10T11:24:00;25.20;45.90
1958;DHT22;979;51.076;13.748;2023-05-10T11:26:34;25.40;45.80
1958;DHT22;979;51.076;13.748;2023-05-10T11:29:03;25.70;45.60
1958;DHT22;979;51.076;13.748;2023-05-10T11:31:32;26.10;45.30
1958;DHT22;979;51.076;13.748;2023-05-10T11:34:01;26.50;45.00
1958;DHT22;979;51.076;13.748;2023-05-10T11:36:33;27.30;44.80
1958;DHT22;979;51.076;13.748;2023-05-10T11:39:02;27.90;44.10
1958;DHT22;979;51.076;13.748;2023-05-10T11:41:33;28.50;43.60
1958;DHT22;979;51.076;13.748;2023-05-10T11:44:02;29.00;43.00
1958;DHT22;979;51.076;13.748;2023-05-10T11:46:30;29.40;42.30
1958;DHT22;979;51.076;13.748;2023-05-10T11:49:01;29.70;42.10
1958;DHT22;979;51.076;13.748;2023-05-10T11:51:34;30.00;41.60
1958;DHT22;979;51.076;13.748;2023-05-10T11:54:06;30.30;41.10
1958;DHT22;979;51.076;13.748;2023-05-10T11:56:35;30.40;40.30
1958;DHT22;979;51.076;13.748;2023-05-10T11:59:04;30.40;40.40
1958;DHT22;979;51.076;13.748;2023-05-10T12:01:32;30.60;40.60
1958;DHT22;979;51.076;13.748;2023-05-10T12:04:02;31.20;40.80
1958;DHT22;979;51.076;13.748;2023-05-10T12:06:32;31.90;40.20
1958;DHT22;979;51.076;13.748;2023-05-10T12:09:06;32.40;39.80
1958;DHT22;979;51.076;13.748;2023-05-10T12:11:37;33.10;39.70
1958;DHT22;979;51.076;13.748;2023-05-10T12:14:09;33.50;38.60
1958;DHT22;979;51.076;13.748;2023-05-10T12:16:38;33.80;38.60
1958;DHT22;979;51.076;13.748;2023-05-10T12:19:10;34.10;38.00
1958;DHT22;979;51.076;13.748;2023-05-10T12:21:38;34.10;37.10
1958;DHT22;979;51.076;13.748;2023-05-10T12:24:08;34.20;37.20
1958;DHT22;979;51.076;13.748;2023-05-10T12:26:37;34.30;36.90
1958;DHT22;979;51.076;13.748;2023-05-10T12:29:14;34.50;37.00
1958;DHT22;979;51.076;13.748;2023-05-10T12:31:50;34.80;36.80
1958;DHT22;979;51.076;13.748;2023-05-10T12:34:29;34.90;36.40
1958;DHT22;979;51.076;13.748;2023-05-10T12:37:02;35.00;36.30
1958;DHT22;979;51.076;13.748;2023-05-10T12:39:44;35.30;36.50
1958;DHT22;979;51.076;13.748;2023-05-10T12:42:14;35.50;36.40
1958;DHT22;979;51.076;13.748;2023-05-10T12:44:56;35.70;36.10
1958;DHT22;979;51.076;13.748;2023-05-10T12:47:24;35.90;35.80
1958;DHT22;979;51.076;13.748;2023-05-10T12:49:58;35.80;35.70
1958;DHT22;979;51.076;13.748;2023-05-10T12:52:27;35.60;35.30
1958;DHT22;979;51.076;13.748;2023-05-10T12:54:55;35.30;35.30
1958;DHT22;979;51.076;13.748;2023-05-10T12:57:27;35.00;35.50
1958;DHT22;979;51.076;13.748;2023-05-10T12:59:56;34.60;35.50
1958;DHT22;979;51.076;13.748;2023-05-10T13:02:24;34.10;35.80
1958;DHT22;979;51.076;13.748;2023-05-10T13:05:09;34.10;36.00
1958;DHT22;979;51.076;13.748;2023-05-10T13:07:43;33.80;36.40
1958;DHT22;979;51.076;13.748;2023-05-10T13:10:14;33.80;36.40
1958;DHT22;979;51.076;13.748;2023-05-10T13:12:42;33.70;36.40
1958;DHT22;979;51.076;13.748;2023-05-10T13:15:26;33.50;36.40
1958;DHT22;979;51.076;13.748;2023-05-10T13:17:54;33.50;36.70
1958;DHT22;979;51.076;13.748;2023-05-10T13:20:36;33.60;36.50
1958;DHT22;979;51.076;13.748;2023-05-10T13:23:04;33.60;36.30
1958;DHT22;979;51.076;13.748;2023-05-10T13:25:46;33.70;36.50
1958;DHT22;979;51.076;13.748;2023-05-10T13:28:16;33.50;36.40
1958;DHT22;979;51.076;13.748;2023-05-10T13:30:53;33.20;36.40
1958;DHT22;979;51.076;13.748;2023-05-10T13:33:22;33.10;36.70
1958;DHT22;979;51.076;13.748;2023-05-10T13:35:52;32.90;36.70
1958;DHT22;979;51.076;13.748;2023-05-10T13:38:24;32.60;36.50
1958;DHT22;979;51.076;13.748;2023-05-10T13:40:53;32.50;36.90
1958;DHT22;979;51.076;13.748;2023-05-10T13:43:21;32.60;37.30
1958;DHT22;979;51.076;13.748;2023-05-10T13:45:49;32.60;37.10
1958;DHT22;979;51.076;13.748;2023-05-10T13:48:19;32.60;37.20
1958;DHT22;979;51.076;13.748;2023-05-10T13:50:47;32.40;37.00
1958;DHT22;979;51.076;13.748;2023-05-10T13:53:18;32.30;37.10
1958;DHT22;979;51.076;13.748;2023-05-10T13:55:46;32.20;37.20
1958;DHT22;979;51.076;13.748;2023-05-10T13:58:14;32.30;37.30
1958;DHT22;979;51.076;13.748;2023-05-10T14:00:43;32.30;37.30
1958;DHT22;979;51.076;13.748;2023-05-10T14:03:13;32.50;37.40
1958;DHT22;979;51.076;13.748;2023-05-10T14:05:42;32.60;37.30
1958;DHT22;979;51.076;13.748;2023-05-10T14:08:11;32.80;37.30
1958;DHT22;979;51.076;13.748;2023-05-10T14:10:42;32.70;37.00
1958;DHT22;979;51.076;13.748;2023-05-10T14:13:11;32.70;37.70
1958;DHT22;979;51.076;13.748;2023-05-10T14:15:40;32.70;37.50
1958;DHT22;979;51.076;13.748;2023-05-10T14:18:08;32.70;37.40
1958;DHT22;979;51.076;13.748;2023-05-10T14:20:36;32.70;37.40
1958;DHT22;979;51.076;13.748;2023-05-10T14:23:05;32.50;37.10
1958;DHT22;979;51.076;13.748;2023-05-10T14:25:35;32.20;38.10
1958;DHT22;979;51.076;13.748;2023-05-10T14:28:09;31.90;39.50
1958;DHT22;979;51.076;13.748;2023-05-10T14:30:38;31.70;40.40
1958;DHT22;979;51.076;13.748;2023-05-10T14:33:06;31.40;40.70
1958;DHT22;979;51.076;13.748;2023-05-10T14:35:35;31.10;40.90
1958;DHT22;979;51.076;13.748;2023-05-10T14:38:04;30.80;41.30
1958;DHT22;979;51.076;13.748;2023-05-10T14:40:33;30.40;41.70
1958;DHT22;979;51.076;13.748;2023-05-10T14:43:01;30.20;42.00
1958;DHT22;979;51.076;13.748;2023-05-10T14:45:31;29.80;42.30
1958;DHT22;979;51.076;13.748;2023-05-10T14:48:00;29.30;42.50
1958;DHT22;979;51.076;13.748;2023-05-10T14:50:32;29.10;43.00
1958;DHT22;979;51.076;13.748;2023-05-10T14:53:03;28.80;43.60
1958;DHT22;979;51.076;13.748;2023-05-10T14:55:31;28.50;44.00
1958;DHT22;979;51.076;13.748;2023-05-10T14:58:02;28.00;44.40
1958;DHT22;979;51.076;13.748;2023-05-10T15:00:35;27.40;44.60
1958;DHT22;979;51.076;13.748;2023-05-10T15:03:06;27.00;45.50
1958;DHT22;979;51.076;13.748;2023-05-10T15:05:35;26.80;46.10
1958;DHT22;979;51.076;13.748;2023-05-10T15:08:05;26.40;46.70
1958;DHT22;979;51.076;13.748;2023-05-10T15:10:33;26.10;47.10
1958;DHT22;979;51.076;13.748;2023-05-10T15:13:03;26.00;47.60
1958;DHT22;979;51.076;13.748;2023-05-10T15:15:31;26.00;47.80
1958;DHT22;979;51.076;13.748;2023-05-10T15:18:01;25.90;48.00
1958;DHT22;979;51.076;13.748;2023-05-10T15:20:31;25.90;48.80
1958;DHT22;979;51.076;13.748;2023-05-10T15:23:00;25.70;48.70
1958;DHT22;979;51.076;13.748;2023-05-10T15:25:32;25.30;49.10
1958;DHT22;979;51.076;13.748;2023-05-10T15:28:01;25.20;48.90
1958;DHT22;979;51.076;13.748;2023-05-10T15:30:36;25.30;50.00
1958;DHT22;979;51.076;13.748;2023-05-10T15:33:07;25.20;50.00
1958;DHT22;979;51.076;13.748;2023-05-10T15:35:43;25.10;50.10
1958;DHT22;979;51.076;13.748;2023-05-10T15:38:14;24.90;50.10
1958;DHT22;979;51.076;13.748;2023-05-10T15:40:46;24.80;50.60
1958;DHT22;979;51.076;13.748;2023-05-10T15:43:17;24.80;50.90
1958;DHT22;979;51.076;13.748;2023-05-10T15:45:46;24.80;51.00
1958;DHT22;979;51.076;13.748;2023-05-10T15:48:20;24.90;51.40
1958;DHT22;979;51.076;13.748;2023-05-10T15:50:48;24.90;51.20
1958;DHT22;979;51.076;13.748;2023-05-10T15:53:17;24.70;51.30
1958;DHT22;979;51.076;13.748;2023-05-10T15:55:45;24.60;52.10
1958;DHT22;979;51.076;13.748;2023-05-10T15:58:13;24.40;51.90
1958;DHT22;979;51.076;13.748;2023-05-10T16:00:42;24.20;51.80
1958;DHT22;979;51.076;13.748;2023-05-10T16:03:11;23.90;51.90
1958;DHT22;979;51.076;13.748;2023-05-10T16:05:41;23.70;52.00
1958;DHT22;979;51.076;13.748;2023-05-10T16:08:10;23.50;52.40
1958;DHT22;979;51.076;13.748;2023-05-10T16:10:38;23.30;52.40
1958;DHT22;979;51.076;13.748;2023-05-10T16:13:07;23.20;52.90
1958;DHT22;979;51.076;13.748;2023-05-10T16:15:36;23.10;53.20
1958;DHT22;979;51.076;13.748;2023-05-10T16:18:05;22.90;53.30
1958;DHT22;979;51.076;13.748;2023-05-10T16:20:34;22.90;53.50
1958;DHT22;979;51.076;13.748;2023-05-10T16:23:05;22.80;53.50
1958;DHT22;979;51.076;13.748;2023-05-10T16:25:34;22.60;53.60
1958;DHT22;979;51.076;13.748;2023-05-10T16:28:03;22.60;53.90
1958;DHT22;979;51.076;13.748;2023-05-10T16:30:31;22.40;54.00
1958;DHT22;979;51.076;13.748;2023-05-10T16:33:00;22.40;54.10
1958;DHT22;979;51.076;13.748;2023-05-10T16:35:28;22.30;54.20
1958;DHT22;979;51.076;13.748;2023-05-10T16:37:57;22.30;54.40
1958;DHT22;979;51.076;13.748;2023-05-10T16:40:26;22.20;54.10
1958;DHT22;979;51.076;13.748;2023-05-10T16:42:55;22.20;54.30
1958;DHT22;979;51.076;13.748;2023-05-10T16:45:24;22.10;54.40
1958;DHT22;979;51.076;13.748;2023-05-10T16:47:53;22.10;54.40
1958;DHT22;979;51.076;13.748;2023-05-10T16:50:21;22.10;54.40
1958;DHT22;979;51.076;13.748;2023-05-10T16:52:50;22.10;54.40
1958;DHT22;979;51.076;13.748;2023-05-10T16:55:18;22.10;54.60
1958;DHT22;979;51.076;13.748;2023-05-10T16:57:49;22.00;54.60
1958;DHT22;979;51.076;13.748;2023-05-10T17:00:18;22.00;54.60
1958;DHT22;979;51.076;13.748;2023-05-10T17:02:46;22.00;54.60
1958;DHT22;979;51.076;13.748;2023-05-10T17:05:17;21.90;54.60
1958;DHT22;979;51.076;13.748;2023-05-10T17:07:45;21.80;54.50
1958;DHT22;979;51.076;13.748;2023-05-10T17:10:14;21.70;54.60
1958;DHT22;979;51.076;13.748;2023-05-10T17:12:42;21.60;54.70
1958;DHT22;979;51.076;13.748;2023-05-10T17:15:13;21.50;54.90
1958;DHT22;979;51.076;13.748;2023-05-10T17:17:47;21.50;55.10
1958;DHT22;979;51.076;13.748;2023-05-10T17:20:15;21.50;55.10
1958;DHT22;979;51.076;13.748;2023-05-10T17:22:44;21.40;55.20